createdAt,value
2023-04-15T00:00:00.459Z,8.04
2023-04-15T00:02:29.638Z,8.07
2023-04-15T00:04:57.681Z,8.12
2023-04-15T00:07:25.636Z,8.19
2023-04-15T00:09:55.337Z,8.25
2023-04-15T00:12:24.287Z,8.29
2023-04-15T00:14:52.302Z,8.34
2023-04-15T00:17:20.432Z,8.37
2023-04-15T00:19:48.443Z,8.38
2023-04-15T00:22:17.284Z,8.40
2023-04-15T00:24:45.282Z,8.43
2023-04-15T00:27:13.540Z,8.38
2023-04-15T00:29:41.916Z,8.34
2023-04-15T00:32:09.929Z,8.30
2023-04-15T00:34:37.919Z,8.27
2023-04-15T00:37:05.831Z,8.23
2023-04-15T00:39:34.256Z,8.19
2023-04-15T00:42:05.033Z,8.14
2023-04-15T00:44:33.752Z,8.13
2023-04-15T00:47:04.983Z,8.12
2023-04-15T00:49:33.296Z,8.10
2023-04-15T00:52:04.358Z,8.09
2023-04-15T00:54:32.400Z,8.11
2023-04-15T00:57:00.761Z,8.10
2023-04-15T00:59:29.203Z,8.07
2023-04-15T01:01:57.355Z,8.04
2023-04-15T01:04:26.293Z,8.02
2023-04-15T01:06:54.379Z,8.02
2023-04-15T01:09:22.387Z,8.02
2023-04-15T01:11:52.729Z,7.98
2023-04-15T01:14:21.422Z,7.91
2023-04-15T01:16:49.445Z,7.90
2023-04-15T01:19:18.284Z,7.87
2023-04-15T01:21:47.093Z,7.84
2023-04-15T01:24:18.669Z,7.80
2023-04-15T01:26:47.452Z,7.76
2023-04-15T01:29:15.691Z,7.74
2023-04-15T01:31:55.111Z,7.71
2023-04-15T01:34:23.430Z,7.69
2023-04-15T01:36:55.250Z,7.68
2023-04-15T01:39:23.555Z,7.67
2023-04-15T01:41:51.447Z,7.66
2023-04-15T01:44:19.319Z,7.63
2023-04-15T01:46:48.513Z,7.61
2023-04-15T01:49:17.106Z,7.61
2023-04-15T01:51:44.954Z,7.63
2023-04-15T01:54:14.339Z,7.67
2023-04-15T01:56:42.434Z,7.72
2023-04-15T01:59:11.084Z,7.76
2023-04-15T02:01:39.763Z,7.79
2023-04-15T02:04:08.443Z,7.81
2023-04-15T02:06:36.503Z,7.80
2023-04-15T02:09:04.451Z,7.82
2023-04-15T02:11:32.549Z,7.83
2023-04-15T02:14:00.586Z,7.84
2023-04-15T02:16:28.571Z,7.85
2023-04-15T02:18:56.520Z,7.91
2023-04-15T02:21:26.876Z,7.91
2023-04-15T02:23:54.731Z,7.85
2023-04-15T02:26:23.009Z,7.82
2023-04-15T02:28:53.845Z,7.82
2023-04-15T02:31:21.881Z,7.80
2023-04-15T02:33:50.296Z,7.79
2023-04-15T02:36:18.367Z,7.74
2023-04-15T02:38:46.397Z,7.65
2023-04-15T02:41:15.284Z,7.54
2023-04-15T02:43:44.187Z,7.49
2023-04-15T02:46:14.875Z,7.46
2023-04-15T02:48:43.180Z,7.41
2023-04-15T02:51:22.987Z,7.34
2023-04-15T02:53:51.349Z,7.31
2023-04-15T02:56:20.000Z,7.25
2023-04-15T02:58:50.745Z,7.20
2023-04-15T03:01:19.333Z,7.18
2023-04-15T03:03:47.810Z,7.16
2023-04-15T03:06:15.832Z,7.19
2023-04-15T03:08:43.846Z,7.19
2023-04-15T03:11:15.510Z,7.17
2023-04-15T03:13:43.552Z,7.15
2023-04-15T03:16:21.188Z,7.14
2023-04-15T03:18:49.396Z,7.19
2023-04-15T03:21:17.628Z,7.16
2023-04-15T03:23:48.681Z,7.13
2023-04-15T03:26:30.578Z,7.09
2023-04-15T03:29:03.669Z,7.08
2023-04-15T03:31:31.841Z,7.05
2023-04-15T03:33:59.890Z,6.99
2023-04-15T03:36:34.658Z,6.94
2023-04-15T03:39:03.348Z,6.88
2023-04-15T03:41:32.873Z,6.86
2023-04-15T03:44:01.120Z,6.81
2023-04-15T03:46:29.174Z,6.80
2023-04-15T03:48:57.093Z,6.81
2023-04-15T03:51:24.981Z,6.84
2023-04-15T03:53:52.841Z,6.84
2023-04-15T03:56:21.095Z,6.87
2023-04-15T03:58:49.006Z,6.86
2023-04-15T04:01:16.854Z,6.82
2023-04-15T04:03:44.894Z,6.79
2023-04-15T04:06:13.071Z,6.78
2023-04-15T04:08:41.000Z,6.76
2023-04-15T04:11:08.940Z,6.78
2023-04-15T04:13:36.998Z,6.79
2023-04-15T04:16:05.425Z,6.78
2023-04-15T04:18:33.897Z,6.77
2023-04-15T04:21:02.182Z,6.77
2023-04-15T04:23:30.513Z,6.78
2023-04-15T04:25:58.362Z,6.80
2023-04-15T04:28:26.231Z,6.85
2023-04-15T04:30:54.393Z,6.93
2023-04-15T04:33:22.600Z,6.99
2023-04-15T04:35:50.481Z,7.03
2023-04-15T04:38:18.290Z,7.10
2023-04-15T04:40:46.709Z,7.14
2023-04-15T04:43:15.973Z,7.17
2023-04-15T04:45:44.028Z,7.22
2023-04-15T04:48:12.008Z,7.27
2023-04-15T04:50:40.080Z,7.30
2023-04-15T04:53:08.130Z,7.31
2023-04-15T04:55:38.623Z,7.37
2023-04-15T04:58:07.110Z,7.42
2023-04-15T05:00:35.071Z,7.44
2023-04-15T05:03:03.066Z,7.46
2023-04-15T05:05:31.493Z,7.48
2023-04-15T05:07:59.410Z,7.51
2023-04-15T05:10:27.275Z,7.54
2023-04-15T05:12:55.512Z,7.60
2023-04-15T05:15:23.390Z,7.68
2023-04-15T05:17:51.873Z,7.74
2023-04-15T05:20:19.991Z,7.80
2023-04-15T05:22:48.038Z,7.86
2023-04-15T05:25:16.413Z,7.96
2023-04-15T05:27:44.451Z,8.02
2023-04-15T05:30:13.835Z,8.09
2023-04-15T05:32:42.058Z,8.16
2023-04-15T05:35:10.111Z,8.24
2023-04-15T05:37:38.034Z,8.27
2023-04-15T05:40:06.719Z,8.28
2023-04-15T05:42:35.845Z,8.28
2023-04-15T05:45:05.731Z,8.31
2023-04-15T05:47:54.407Z,8.34
2023-04-15T05:50:22.390Z,8.36
2023-04-15T05:52:50.304Z,8.39
2023-04-15T05:55:18.211Z,8.40
2023-04-15T05:57:46.501Z,8.40
2023-04-15T06:00:15.503Z,8.38
2023-04-15T06:02:43.819Z,8.37
2023-04-15T06:05:12.094Z,8.37
2023-04-15T06:07:40.205Z,8.38
2023-04-15T06:10:08.956Z,8.40
2023-04-15T06:12:37.082Z,8.44
2023-04-15T06:15:06.711Z,8.50
2023-04-15T06:17:34.579Z,8.51
2023-04-15T06:20:02.454Z,8.56
2023-04-15T06:22:30.489Z,8.61
2023-04-15T06:24:58.584Z,8.65
2023-04-15T06:27:26.516Z,8.67
2023-04-15T06:29:54.481Z,8.71
2023-04-15T06:32:22.713Z,8.73
2023-04-15T06:34:50.733Z,8.82
2023-04-15T06:37:18.624Z,8.93
2023-04-15T06:39:46.481Z,9.06
2023-04-15T06:42:14.562Z,9.18
2023-04-15T06:44:42.589Z,9.31
2023-04-15T06:47:10.482Z,9.54
2023-04-15T06:49:38.668Z,9.82
2023-04-15T06:52:06.711Z,10.05
2023-04-15T06:54:34.836Z,10.23
2023-04-15T06:57:02.906Z,10.38
2023-04-15T06:59:31.309Z,10.54
2023-04-15T07:01:59.526Z,10.66
2023-04-15T07:04:28.012Z,10.76
2023-04-15T07:06:57.021Z,10.85
2023-04-15T07:09:25.725Z,10.92
2023-04-15T07:11:53.684Z,10.98
2023-04-15T07:14:21.684Z,11.05
2023-04-15T07:16:49.690Z,11.11
2023-04-15T07:19:17.562Z,11.18
2023-04-15T07:21:45.465Z,11.26
2023-04-15T07:24:16.896Z,11.34
2023-04-15T07:26:45.313Z,11.45
2023-04-15T07:29:13.364Z,11.51
2023-04-15T07:31:42.382Z,11.57
2023-04-15T07:34:10.912Z,11.65
2023-04-15T07:36:38.814Z,11.69
2023-04-15T07:39:06.841Z,11.74
2023-04-15T07:41:35.256Z,11.75
2023-04-15T07:44:03.164Z,11.77
2023-04-15T07:46:31.294Z,11.80
2023-04-15T07:48:59.370Z,11.86
2023-04-15T07:51:27.394Z,11.90
2023-04-15T07:53:55.477Z,11.93
2023-04-15T07:56:23.367Z,11.95
2023-04-15T07:58:51.743Z,11.92
2023-04-15T08:01:19.930Z,11.91
2023-04-15T08:03:48.668Z,11.87
2023-04-15T08:06:16.765Z,11.85
2023-04-15T08:08:44.788Z,11.87
2023-04-15T08:11:13.635Z,11.88
2023-04-15T08:13:41.747Z,11.84
2023-04-15T08:16:19.397Z,11.81
2023-04-15T08:18:48.750Z,11.79
2023-04-15T08:21:17.868Z,11.78
2023-04-15T08:23:48.565Z,11.80
2023-04-15T08:26:17.718Z,11.83
2023-04-15T08:28:47.109Z,11.89
2023-04-15T08:31:16.686Z,11.94
2023-04-15T08:33:45.091Z,11.98
2023-04-15T08:36:14.103Z,11.99
2023-04-15T08:38:42.374Z,12.01
2023-04-15T08:41:39.626Z,12.02
2023-04-15T08:44:07.719Z,12.05
2023-04-15T08:46:35.995Z,12.08
2023-04-15T08:49:05.315Z,12.13
2023-04-15T08:51:34.331Z,12.19
2023-04-15T08:54:03.623Z,12.33
2023-04-15T08:56:33.248Z,12.50
2023-04-15T08:59:02.635Z,12.65
2023-04-15T09:01:32.292Z,12.76
2023-04-15T09:04:08.514Z,12.81
2023-04-15T09:06:36.890Z,12.91
2023-04-15T09:09:12.430Z,13.01
2023-04-15T09:11:40.549Z,13.10
2023-04-15T09:14:08.572Z,13.16
2023-04-15T09:16:59.622Z,13.18
2023-04-15T09:19:42.175Z,13.16
2023-04-15T09:22:15.555Z,13.27
2023-04-15T09:24:43.812Z,13.36
2023-04-15T09:27:11.882Z,13.37
2023-04-15T09:29:42.681Z,13.44
2023-04-15T09:32:12.588Z,13.46
2023-04-15T09:34:40.635Z,13.46
2023-04-15T09:37:11.159Z,13.42
2023-04-15T09:39:50.153Z,13.39
2023-04-15T09:42:24.774Z,13.37
2023-04-15T09:44:53.265Z,13.41
2023-04-15T09:47:29.395Z,13.51
2023-04-15T09:50:01.358Z,13.62
2023-04-15T09:52:30.340Z,13.66
2023-04-15T09:54:59.498Z,13.67
2023-04-15T09:57:38.153Z,13.70
2023-04-15T10:00:08.580Z,13.70
2023-04-15T10:02:39.998Z,13.72
2023-04-15T10:05:11.024Z,13.78
2023-04-15T10:07:41.399Z,13.79
2023-04-15T10:10:11.013Z,13.80
2023-04-15T10:12:41.750Z,13.84
2023-04-15T10:15:17.444Z,13.95
2023-04-15T10:17:46.352Z,14.12
2023-04-15T10:20:17.777Z,14.28
2023-04-15T10:22:46.877Z,14.38
2023-04-15T10:25:16.635Z,14.44
2023-04-15T10:27:45.551Z,14.53
2023-04-15T10:30:13.866Z,14.67
2023-04-15T10:32:42.663Z,14.79
2023-04-15T10:35:12.020Z,14.90
2023-04-15T10:37:40.132Z,15.01
2023-04-15T10:40:31.909Z,15.08
2023-04-15T10:43:03.949Z,15.12
2023-04-15T10:45:37.979Z,15.16
2023-04-15T10:48:09.127Z,15.21
2023-04-15T10:50:37.873Z,15.18
2023-04-15T10:53:06.032Z,15.07
2023-04-15T10:55:34.812Z,14.95
2023-04-15T10:58:03.356Z,14.86
2023-04-15T11:00:33.096Z,14.82
2023-04-15T11:03:10.544Z,14.87
2023-04-15T11:05:41.734Z,14.90
2023-04-15T11:08:11.454Z,14.86
2023-04-15T11:10:39.456Z,14.88
2023-04-15T11:13:10.284Z,14.81
2023-04-15T11:15:38.891Z,14.79
2023-04-15T11:18:17.073Z,14.89
2023-04-15T11:20:59.735Z,14.97
2023-04-15T11:23:37.630Z,15.03
2023-04-15T11:26:12.435Z,15.12
2023-04-15T11:28:44.922Z,15.27
2023-04-15T11:31:20.495Z,15.45
2023-04-15T11:33:59.662Z,15.63
2023-04-15T11:36:29.820Z,15.67
2023-04-15T11:38:59.918Z,15.68
2023-04-15T11:41:28.814Z,15.71
2023-04-15T11:43:59.816Z,15.72
2023-04-15T11:46:34.218Z,15.70
2023-04-15T11:49:02.114Z,15.77
2023-04-15T11:51:34.655Z,15.80
2023-04-15T11:54:03.967Z,15.82
2023-04-15T11:56:32.390Z,15.91
2023-04-15T11:59:00.353Z,15.88
2023-04-15T12:01:36.541Z,15.86
2023-04-15T12:04:13.014Z,15.95
2023-04-15T12:06:41.739Z,16.01
2023-04-15T12:09:14.503Z,16.05
2023-04-15T12:11:50.199Z,16.08
2023-04-15T12:14:32.657Z,16.15
2023-04-15T12:17:03.147Z,16.24
2023-04-15T12:19:40.196Z,16.34
2023-04-15T12:22:12.845Z,16.37
2023-04-15T12:24:44.362Z,16.29
2023-04-15T12:27:13.480Z,16.24
2023-04-15T12:29:54.249Z,16.19
2023-04-15T12:32:23.157Z,16.11
2023-04-15T12:34:53.559Z,16.08
2023-04-15T12:37:22.429Z,16.04
2023-04-15T12:39:51.040Z,15.92
2023-04-15T12:42:19.708Z,15.91
2023-04-15T12:44:48.089Z,15.98
2023-04-15T12:47:16.312Z,16.13
2023-04-15T12:49:44.456Z,16.32
2023-04-15T12:52:15.337Z,16.52
2023-04-15T12:54:43.350Z,16.62
2023-04-15T12:57:11.331Z,16.67
2023-04-15T12:59:39.341Z,16.61
2023-04-15T13:02:08.089Z,16.46
2023-04-15T13:04:36.192Z,16.36
2023-04-15T13:07:04.389Z,16.37
2023-04-15T13:09:32.582Z,16.41
2023-04-15T13:12:01.403Z,16.41
2023-04-15T13:14:29.324Z,16.38
2023-04-15T13:16:58.124Z,16.46
2023-04-15T13:19:26.750Z,16.51
2023-04-15T13:21:54.703Z,16.45
2023-04-15T13:24:22.642Z,16.41
2023-04-15T13:26:50.681Z,16.37
2023-04-15T13:29:18.780Z,16.34
2023-04-15T13:31:46.774Z,16.28
2023-04-15T13:34:14.774Z,16.33
2023-04-15T13:36:43.991Z,16.41
2023-04-15T13:39:11.994Z,16.51
2023-04-15T13:41:41.071Z,16.62
2023-04-15T13:44:08.988Z,16.73
2023-04-15T13:46:37.945Z,16.81
2023-04-15T13:49:06.201Z,16.78
2023-04-15T13:51:36.479Z,16.73
2023-04-15T13:54:04.554Z,16.65
2023-04-15T13:56:32.696Z,16.66
2023-04-15T13:59:02.478Z,16.71
2023-04-15T14:01:30.599Z,16.71
2023-04-15T14:03:58.756Z,16.66
2023-04-15T14:06:28.114Z,16.55
2023-04-15T14:08:56.064Z,16.48
2023-04-15T14:11:24.030Z,16.35
2023-04-15T14:13:51.903Z,16.26
2023-04-15T14:16:19.787Z,16.17
2023-04-15T14:18:47.776Z,16.14
2023-04-15T14:21:15.804Z,16.13
2023-04-15T14:23:43.882Z,16.18
2023-04-15T14:26:11.974Z,16.25
2023-04-15T14:28:39.961Z,16.32
2023-04-15T14:31:11.162Z,16.29
2023-04-15T14:33:39.303Z,16.22
2023-04-15T14:36:09.245Z,16.14
2023-04-15T14:38:38.762Z,16.16
2023-04-15T14:41:08.162Z,16.15
2023-04-15T14:43:36.742Z,16.17
2023-04-15T14:46:04.920Z,16.09
2023-04-15T14:48:33.249Z,16.04
2023-04-15T14:51:01.234Z,15.96
2023-04-15T14:53:29.554Z,15.87
2023-04-15T14:55:57.645Z,15.78
2023-04-15T14:58:25.729Z,15.72
2023-04-15T15:00:53.608Z,15.68
2023-04-15T15:03:21.786Z,15.60
2023-04-15T15:05:49.868Z,15.55
2023-04-15T15:08:17.885Z,15.48
2023-04-15T15:10:49.080Z,15.43
2023-04-15T15:13:18.982Z,15.37
2023-04-15T15:15:49.323Z,15.34
2023-04-15T15:18:19.396Z,15.34
2023-04-15T15:20:47.853Z,15.36
2023-04-15T15:23:18.607Z,15.37
2023-04-15T15:25:47.323Z,15.33
2023-04-15T15:28:15.315Z,15.25
2023-04-15T15:30:43.189Z,15.21
2023-04-15T15:33:11.163Z,15.19
2023-04-15T15:35:39.709Z,15.18
2023-04-15T15:38:07.816Z,15.15
2023-04-15T15:40:35.965Z,15.11
2023-04-15T15:43:04.543Z,15.08
2023-04-15T15:45:32.662Z,15.05
2023-04-15T15:48:02.109Z,14.99
2023-04-15T15:50:30.335Z,14.95
2023-04-15T15:52:58.975Z,14.91
2023-04-15T15:55:27.433Z,14.87
2023-04-15T15:57:55.600Z,14.87
2023-04-15T16:00:23.825Z,14.85
2023-04-15T16:03:06.763Z,14.82
2023-04-15T16:05:38.691Z,14.82
2023-04-15T16:08:06.873Z,14.79
2023-04-15T16:10:35.115Z,14.76
2023-04-15T16:13:05.606Z,14.72
2023-04-15T16:15:34.615Z,14.68
2023-04-15T16:18:03.245Z,14.62
2023-04-15T16:20:31.639Z,14.60
2023-04-15T16:22:59.756Z,14.54
2023-04-15T16:25:27.864Z,14.49
2023-04-15T16:28:05.591Z,14.47
2023-04-15T16:30:44.086Z,14.43
2023-04-15T16:33:12.120Z,14.41
2023-04-15T16:35:40.217Z,14.40
2023-04-15T16:38:08.257Z,14.37
2023-04-15T16:40:37.688Z,14.34
2023-04-15T16:43:08.254Z,14.29
2023-04-15T16:45:36.283Z,14.26
2023-04-15T16:48:04.596Z,14.24
2023-04-15T16:50:32.781Z,14.19
2023-04-15T16:53:01.696Z,14.16
2023-04-15T16:55:29.784Z,14.13
2023-04-15T16:58:01.642Z,14.09
2023-04-15T17:00:33.107Z,14.08
2023-04-15T17:03:01.705Z,14.04
2023-04-15T17:05:32.913Z,14.01
2023-04-15T17:08:00.864Z,13.97
2023-04-15T17:10:29.201Z,13.93
2023-04-15T17:12:58.210Z,13.88
2023-04-15T17:15:27.494Z,13.84
2023-04-15T17:17:55.743Z,13.79
2023-04-15T17:20:26.618Z,13.75
2023-04-15T17:22:54.858Z,13.70
2023-04-15T17:25:23.313Z,13.64
2023-04-15T17:27:51.343Z,13.59
2023-04-15T17:30:19.541Z,13.53
2023-04-15T17:32:47.652Z,13.48
2023-04-15T17:35:15.765Z,13.42
2023-04-15T17:37:43.876Z,13.36
2023-04-15T17:40:12.438Z,13.29
2023-04-15T17:42:41.418Z,13.23
2023-04-15T17:45:09.830Z,13.17
2023-04-15T17:47:38.198Z,13.09
2023-04-15T17:50:10.179Z,13.04
2023-04-15T17:52:41.631Z,13.00
2023-04-15T17:55:09.782Z,12.96
2023-04-15T17:57:37.897Z,12.93
2023-04-15T18:00:11.702Z,12.88
2023-04-15T18:02:42.482Z,12.79
2023-04-15T18:05:10.835Z,12.74
2023-04-15T18:07:39.430Z,12.65
2023-04-15T18:10:08.816Z,12.59
2023-04-15T18:12:36.700Z,12.52
2023-04-15T18:15:07.356Z,12.48
2023-04-15T18:17:35.897Z,12.48
2023-04-15T18:20:04.003Z,12.48
2023-04-15T18:22:34.226Z,12.37
2023-04-15T18:25:04.836Z,12.29
2023-04-15T18:27:34.068Z,12.26
2023-04-15T18:30:02.133Z,12.16
2023-04-15T18:32:32.915Z,12.05
2023-04-15T18:35:00.935Z,11.92
2023-04-15T18:37:29.524Z,11.86
2023-04-15T18:39:58.300Z,11.77
2023-04-15T18:42:26.227Z,11.68
2023-04-15T18:44:54.767Z,11.54
2023-04-15T18:47:24.626Z,11.41
2023-04-15T18:49:54.394Z,11.30
2023-04-15T18:52:23.171Z,11.19
2023-04-15T18:54:51.430Z,11.09
2023-04-15T18:57:22.705Z,11.04
2023-04-15T18:59:56.919Z,11.02
2023-04-15T19:02:25.021Z,10.98
2023-04-15T19:04:53.441Z,10.95
2023-04-15T19:07:22.267Z,10.94
2023-04-15T19:09:50.415Z,10.91
2023-04-15T19:12:18.413Z,10.88
2023-04-15T19:14:46.427Z,10.89
2023-04-15T19:17:14.454Z,10.86
2023-04-15T19:19:42.345Z,10.86
2023-04-15T19:22:10.623Z,10.84
2023-04-15T19:24:38.674Z,10.74
2023-04-15T19:27:06.841Z,10.70
2023-04-15T19:29:35.073Z,10.71
2023-04-15T19:32:03.139Z,10.75
2023-04-15T19:34:31.621Z,10.71
2023-04-15T19:36:59.682Z,10.68
2023-04-15T19:39:27.556Z,10.64
2023-04-15T19:41:56.027Z,10.61
2023-04-15T19:44:24.010Z,10.58
2023-04-15T19:46:53.232Z,10.56
2023-04-15T19:49:21.302Z,10.56
2023-04-15T19:51:52.664Z,10.54
2023-04-15T19:54:21.335Z,10.55
2023-04-15T19:56:49.405Z,10.54
2023-04-15T19:59:17.489Z,10.54
2023-04-15T20:01:45.722Z,10.50
2023-04-15T20:04:13.945Z,10.48
2023-04-15T20:06:42.119Z,10.47
2023-04-15T20:09:11.531Z,10.48
2023-04-15T20:12:44.992Z,10.45
2023-04-15T20:14:27.913Z,10.38
2023-04-15T20:16:56.366Z,10.30
2023-04-15T20:19:24.381Z,10.28
2023-04-15T20:21:54.047Z,10.25
2023-04-15T20:24:24.277Z,10.22
2023-04-15T20:26:52.389Z,10.20
2023-04-15T20:29:20.543Z,10.20
2023-04-15T20:31:48.949Z,10.16
2023-04-15T20:34:17.217Z,10.14
2023-04-15T20:36:45.285Z,10.09
2023-04-15T20:39:13.316Z,10.09
2023-04-15T20:41:41.411Z,10.10
2023-04-15T20:44:09.551Z,10.09
2023-04-15T20:46:37.867Z,10.07
2023-04-15T20:49:06.042Z,10.04
2023-04-15T20:51:37.716Z,10.02
2023-04-15T20:54:06.598Z,9.99
2023-04-15T20:56:34.523Z,9.98
2023-04-15T20:59:02.627Z,9.96
2023-04-15T21:01:30.827Z,9.93
2023-04-15T21:03:59.114Z,9.91
2023-04-15T21:06:27.929Z,9.90
2023-04-15T21:08:56.214Z,9.91
2023-04-15T21:11:43.144Z,9.90
2023-04-15T21:14:12.388Z,9.88
2023-04-15T21:16:41.014Z,9.87
2023-04-15T21:19:11.516Z,9.85
2023-04-15T21:21:39.789Z,9.84
2023-04-15T21:24:07.879Z,9.84
2023-04-15T21:26:36.312Z,9.79
2023-04-15T21:29:04.854Z,9.77
2023-04-15T21:31:33.277Z,9.75
2023-04-15T21:34:01.230Z,9.76
2023-04-15T21:36:29.204Z,9.74
2023-04-15T21:38:57.283Z,9.70
2023-04-15T21:41:26.017Z,9.69
2023-04-15T21:43:54.082Z,9.68
2023-04-15T21:46:25.581Z,9.66
2023-04-15T21:49:00.865Z,9.63
2023-04-15T21:51:28.861Z,9.61
2023-04-15T21:53:56.990Z,9.57
2023-04-15T21:56:25.874Z,9.55
2023-04-15T21:58:57.031Z,9.52
2023-04-15T22:01:26.233Z,9.51
2023-04-15T22:03:54.457Z,9.48
2023-04-15T22:06:22.750Z,9.45
2023-04-15T22:08:57.022Z,9.42
2023-04-15T22:11:31.146Z,9.43
2023-04-15T22:13:59.591Z,9.40
2023-04-15T22:16:28.508Z,9.32
2023-04-15T22:18:56.762Z,9.27
2023-04-15T22:21:24.985Z,9.23
2023-04-15T22:23:53.311Z,9.18
2023-04-15T22:26:41.350Z,9.11
2023-04-15T22:29:09.868Z,9.10
2023-04-15T22:31:37.858Z,9.12
2023-04-15T22:34:05.846Z,9.13
2023-04-15T22:36:34.156Z,9.09
2023-04-15T22:39:02.336Z,9.05
2023-04-15T22:41:30.328Z,9.02
2023-04-15T22:43:58.396Z,8.99
2023-04-15T22:46:26.419Z,8.97
2023-04-15T22:48:54.414Z,8.99
2023-04-15T22:51:23.870Z,8.97
2023-04-15T22:53:51.880Z,8.93
2023-04-15T22:56:21.336Z,8.88
2023-04-15T22:58:50.756Z,8.86
2023-04-15T23:01:19.233Z,8.88
2023-04-15T23:03:55.712Z,8.86
2023-04-15T23:06:25.274Z,8.84
2023-04-15T23:08:54.011Z,8.83
2023-04-15T23:11:22.050Z,8.80
2023-04-15T23:13:50.814Z,8.78
2023-04-15T23:16:19.030Z,8.76
2023-04-15T23:18:47.054Z,8.75
2023-04-15T23:21:15.141Z,8.75
2023-04-15T23:23:43.229Z,8.77
2023-04-15T23:26:11.667Z,8.76
2023-04-15T23:28:39.657Z,8.72
2023-04-15T23:31:07.699Z,8.73
2023-04-15T23:33:35.745Z,8.73
2023-04-15T23:36:07.723Z,8.71
2023-04-15T23:38:35.733Z,8.71
2023-04-15T23:41:03.848Z,8.67
2023-04-15T23:43:31.864Z,8.62
2023-04-15T23:45:59.761Z,8.63
2023-04-15T23:48:27.759Z,8.64
2023-04-15T23:50:56.140Z,8.64
2023-04-15T23:53:24.118Z,8.59
2023-04-15T23:55:52.080Z,8.57
2023-04-15T23:58:20.037Z,8.57
